Time;durP1;ratioP1;P1;durP2;ratioP2;P2;SDS_P1;SDS_P2;PMS_P1;PMS_P2;Temp;Humidity;BMP_temperature;BMP_pressure;BME280_temperature;BME280_humidity;BME280_pressure;Samples;Min_cycle;Max_cycle;Signal;HPM_P1;HPM_P2
2023/01/09 00:00:36;;;;;;;2.23;1.13;;;6.90;99.90;;;;;;5115204;28;20023;-74
2023/01/09 00:03:02;;;;;;;2.20;0.93;;;6.80;99.90;;;;;;5117233;28;20078;-74
2023/01/09 00:05:27;;;;;;;11.00;0.90;;;6.80;99.90;;;;;;5117856;28;20081;-81
2023/01/09 00:07:53;;;;;;;6.68;1.10;;;6.80;99.90;;;;;;5116973;28;20028;-74
2023/01/09 00:10:19;;;;;;;3.30;1.13;;;6.80;99.90;;;;;;5117790;28;20028;-74
2023/01/09 00:12:44;;;;;;;0.95;0.70;;;6.80;99.90;;;;;;5099177;28;20046;-74
2023/01/09 00:15:10;;;;;;;3.97;1.10;;;6.70;99.90;;;;;;5116825;28;20094;-75
2023/01/09 00:17:36;;;;;;;2.73;0.90;;;6.60;99.90;;;;;;5117867;28;20061;-74
2023/01/09 00:20:03;;;;;;;1.80;0.80;;;6.60;99.90;;;;;;5116462;28;20038;-74
2023/01/09 00:22:30;;;;;;;3.83;1.02;;;6.60;99.90;;;;;;5082876;28;20045;-80
2023/01/09 00:24:55;;;;;;;2.45;0.75;;;6.50;99.90;;;;;;5110833;28;20051;-74
2023/01/09 00:27:21;;;;;;;3.70;1.27;;;6.50;99.90;;;;;;5116775;28;20027;-74
2023/01/09 00:29:48;;;;;;;2.10;0.80;;;6.50;99.90;;;;;;5116423;28;20374;-74
2023/01/09 00:32:14;;;;;;;;;;;6.40;99.90;;;;;;5099568;28;20050;-75
2023/01/09 00:34:42;;;;;;;6.60;0.98;;;6.40;99.90;;;;;;5111513;28;19998;-74
2023/01/09 00:37:11;;;;;;;8.90;1.40;;;6.30;99.90;;;;;;5117201;28;20028;-80
2023/01/09 00:39:38;;;;;;;4.13;1.10;;;6.20;99.90;;;;;;5116463;28;20114;-80
2023/01/09 00:42:05;;;;;;;;;;;6.30;99.90;;;;;;5117826;28;20023;-76
2023/01/09 00:44:38;;;;;;;3.15;1.15;;;6.20;99.90;;;;;;5116220;28;20300;-75
2023/01/09 00:47:13;;;;;;;7.90;1.40;;;6.20;99.90;;;;;;5116808;28;20114;-75
2023/01/09 00:49:41;;;;;;;5.30;1.20;;;6.10;99.90;;;;;;5109556;28;20132;-74
2023/01/09 00:52:10;;;;;;;6.75;1.02;;;6.10;99.90;;;;;;5115347;28;20026;-80
2023/01/09 00:54:37;;;;;;;3.67;1.10;;;6.10;99.90;;;;;;5097745;28;20031;-73
2023/01/09 00:57:03;;;;;;;3.75;1.20;;;6.10;99.90;;;;;;5098508;28;20067;-74
2023/01/09 00:59:29;;;;;;;3.50;1.13;;;6.00;99.90;;;;;;5115256;28;20398;-74
2023/01/09 01:01:54;;;;;;;12.90;1.20;;;6.00;99.90;;;;;;5116373;28;20081;-79
2023/01/09 01:09:49;;;;;;;3.72;1.02;;;5.90;99.90;;;;;;5096684;28;20047;-74
2023/01/09 01:12:14;;;;;;;4.30;1.20;;;5.80;99.90;;;;;;5116525;28;20028;-75
2023/01/09 01:14:40;;;;;;;3.38;1.13;;;5.80;99.90;;;;;;5115312;28;20102;-74
2023/01/09 01:17:07;;;;;;;3.13;1.33;;;5.80;99.90;;;;;;5110979;28;20011;-79
2023/01/09 01:19:34;;;;;;;2.42;1.17;;;5.70;99.90;;;;;;5097445;28;20031;-74
2023/01/09 01:21:59;;;;;;;;;;;5.70;99.90;;;;;;5116362;28;20038;-74
2023/01/09 01:24:25;;;;;;;4.72;0.80;;;5.70;99.90;;;;;;5097254;28;19916;-74
2023/01/09 01:26:51;;;;;;;2.73;1.13;;;5.60;99.90;;;;;;5116539;28;20058;-74
2023/01/09 01:29:17;;;;;;;1.97;0.83;;;5.60;99.90;;;;;;5115196;28;20031;-73
2023/01/09 01:31:42;;;;;;;3.65;1.10;;;5.60;99.90;;;;;;5108157;28;20029;-74
2023/01/09 01:34:08;;;;;;;3.03;1.67;;;5.50;99.90;;;;;;5107037;28;20020;-82
2023/01/09 01:36:34;;;;;;;3.43;1.30;;;5.50;99.90;;;;;;5095919;28;20027;-74
2023/01/09 01:38:59;;;;;;;7.63;1.20;;;5.50;99.90;;;;;;5111008;28;20035;-74
2023/01/09 01:41:28;;;;;;;2.78;1.23;;;5.40;99.90;;;;;;5090104;28;20032;-80
2023/01/09 01:43:59;;;;;;;4.45;1.08;;;5.50;99.90;;;;;;5114934;28;20019;-73
2023/01/09 01:46:26;;;;;;;6.32;1.65;;;5.40;99.90;;;;;;5115129;28;20073;-73
2023/01/09 01:48:58;;;;;;;5.40;1.40;;;5.40;99.90;;;;;;5115457;28;20039;-74
2023/01/09 01:51:27;;;;;;;9.25;2.00;;;5.40;99.90;;;;;;5112560;28;20068;-74
2023/01/09 01:53:57;;;;;;;4.10;1.33;;;5.40;99.90;;;;;;5114586;28;20081;-74
2023/01/09 01:56:34;;;;;;;9.00;1.42;;;5.40;99.90;;;;;;5113855;28;20031;-79
2023/01/09 01:59:23;;;;;;;5.05;1.70;;;5.40;99.90;;;;;;5105953;28;20035;-74
2023/01/09 02:01:53;;;;;;;7.88;2.25;;;5.40;99.90;;;;;;5110924;28;20039;-80
2023/01/09 02:04:19;;;;;;;7.68;1.52;;;5.40;99.90;;;;;;5114424;28;20423;-73
2023/01/09 02:06:48;;;;;;;3.75;1.23;;;5.40;99.90;;;;;;5110030;28;20122;-74
2023/01/09 02:09:16;;;;;;;4.35;1.65;;;5.50;99.90;;;;;;5115119;28;20089;-79
2023/01/09 02:11:47;;;;;;;6.53;2.05;;;5.60;99.90;;;;;;5096332;28;20023;-73
2023/01/09 02:14:13;;;;;;;3.78;1.52;;;5.60;99.90;;;;;;5114326;28;20023;-74
2023/01/09 02:17:07;;;;;;;2.55;1.38;;;5.70;99.90;;;;;;5113515;28;20024;-79
2023/01/09 02:19:47;;;;;;;1.55;1.15;;;5.80;99.90;;;;;;5114079;28;20033;-74
2023/01/09 02:22:37;;;;;;;2.85;1.58;;;5.80;99.90;;;;;;5108316;28;20032;-74
2023/01/09 02:25:42;;;;;;;4.90;1.70;;;5.80;99.90;;;;;;5111436;28;20043;-73
2023/01/09 02:28:41;;;;;;;4.90;1.63;;;5.70;99.90;;;;;;5083940;28;20028;-79
2023/01/09 02:31:14;;;;;;;6.15;1.45;;;5.50;99.90;;;;;;5112237;28;20363;-80
2023/01/09 02:33:49;;;;;;;5.63;1.45;;;5.50;99.90;;;;;;5110184;28;20055;-77
2023/01/09 02:36:32;;;;;;;4.63;1.70;;;5.50;99.90;;;;;;5112787;28;20026;-74
2023/01/09 02:39:04;;;;;;;4.05;1.63;;;5.40;99.90;;;;;;5096125;28;20020;-73
2023/01/09 02:41:35;;;;;;;6.85;1.80;;;5.40;99.90;;;;;;5095508;28;20028;-74
2023/01/09 02:44:15;;;;;;;6.15;2.00;;;5.40;99.90;;;;;;5113189;28;20381;-73
2023/01/09 02:46:41;;;;;;;5.72;1.80;;;5.30;99.90;;;;;;5113043;28;20031;-74
2023/01/09 02:49:07;;;;;;;11.33;2.13;;;5.30;99.90;;;;;;5112683;28;20047;-79
2023/01/09 02:51:49;;;;;;;5.45;2.30;;;5.30;99.90;;;;;;5112803;28;20460;-74
2023/01/09 02:54:36;;;;;;;4.25;2.30;;;5.30;99.90;;;;;;5109512;28;20057;-79
2023/01/09 02:57:14;;;;;;;5.03;2.47;;;5.40;99.90;;;;;;5113454;28;20023;-73
2023/01/09 02:59:52;;;;;;;5.45;2.47;;;5.40;99.90;;;;;;5108624;28;20024;-73
2023/01/09 03:02:41;;;;;;;10.02;2.80;;;5.40;99.90;;;;;;5112086;28;20026;-73
2023/01/09 03:05:18;;;;;;;5.50;3.67;;;5.40;99.90;;;;;;5111447;28;20311;-79
2023/01/09 03:07:43;;;;;;;;;;;5.40;99.90;;;;;;5093230;28;20027;-73
2023/01/09 03:10:21;;;;;;;4.10;2.53;;;5.40;99.90;;;;;;5113489;28;19908;-79
2023/01/09 03:12:51;;;;;;;7.80;3.13;;;5.40;99.90;;;;;;5113865;28;20031;-74
2023/01/09 03:15:20;;;;;;;4.40;2.58;;;5.30;99.90;;;;;;5094462;28;20036;-74
2023/01/09 03:17:48;;;;;;;4.43;3.05;;;5.30;99.90;;;;;;5112761;28;20076;-73
2023/01/09 03:20:19;;;;;;;7.32;3.67;;;5.30;99.90;;;;;;5112738;28;20429;-74
2023/01/09 03:22:53;;;;;;;7.00;3.30;;;5.30;99.90;;;;;;5104378;28;20024;-74
2023/01/09 03:25:20;;;;;;;5.60;3.45;;;5.30;99.90;;;;;;5077023;28;20068;-74
2023/01/09 03:27:45;;;;;;;8.27;4.28;;;5.30;99.90;;;;;;5112221;28;20035;-74
2023/01/09 03:30:11;;;;;;;10.43;4.57;;;5.30;99.90;;;;;;5093650;28;20028;-75
2023/01/09 03:32:37;;;;;;;9.97;4.13;;;5.40;99.90;;;;;;5113706;28;20051;-74
2023/01/09 03:35:03;;;;;;;11.30;4.00;;;5.30;99.90;;;;;;5113744;28;20043;-74
2023/01/09 03:37:28;;;;;;;16.27;4.20;;;5.40;99.90;;;;;;5113773;28;20043;-79
2023/01/09 03:39:54;;;;;;;8.40;4.10;;;5.40;99.90;;;;;;5092789;28;20432;-80
2023/01/09 03:42:20;;;;;;;13.87;4.20;;;5.30;99.90;;;;;;5109491;28;20092;-74
2023/01/09 03:44:45;;;;;;;13.67;4.57;;;5.30;99.90;;;;;;5112442;28;20023;-74
2023/01/09 03:47:11;;;;;;;8.83;4.30;;;5.20;99.90;;;;;;5111671;28;20024;-74
2023/01/09 03:49:37;;;;;;;8.37;4.23;;;5.20;99.90;;;;;;5112689;28;20399;-73
2023/01/09 03:52:02;;;;;;;10.40;4.53;;;5.20;99.90;;;;;;5095561;28;20122;-73
2023/01/09 03:54:28;;;;;;;7.63;3.93;;;5.20;99.90;;;;;;5114011;28;20063;-74
2023/01/09 03:56:54;;;;;;;5.77;3.90;;;5.20;99.90;;;;;;5096946;28;20481;-74
2023/01/09 03:59:20;;;;;;;11.90;4.57;;;5.10;99.90;;;;;;5098740;28;20348;-73
2023/01/09 04:01:45;;;;;;;9.87;4.50;;;5.20;99.90;;;;;;5117653;28;20055;-74
2023/01/09 04:04:11;;;;;;;10.90;4.20;;;5.10;99.90;;;;;;5117447;28;20064;-74
2023/01/09 04:06:36;;;;;;;5.87;3.90;;;5.10;99.90;;;;;;5116149;28;20071;-80
2023/01/09 04:09:02;;;;;;;10.35;4.10;;;5.10;99.90;;;;;;5115812;28;20027;-73
2023/01/09 04:11:28;;;;;;;8.43;3.70;;;5.00;99.90;;;;;;5116806;28;20382;-73
2023/01/09 04:13:53;;;;;;;13.32;3.65;;;5.00;99.90;;;;;;5117585;28;20028;-74
2023/01/09 04:16:19;;;;;;;11.97;3.57;;;5.00;99.90;;;;;;5115875;28;20062;-73
2023/01/09 04:18:45;;;;;;;18.57;3.63;;;5.00;99.90;;;;;;5116745;28;20398;-73
2023/01/09 04:21:10;;;;;;;8.67;4.07;;;5.00;99.90;;;;;;5116745;28;20065;-74
2023/01/09 04:23:36;;;;;;;8.17;3.47;;;5.00;99.90;;;;;;5117301;28;20088;-78
2023/01/09 04:26:02;;;;;;;12.90;3.67;;;5.00;99.90;;;;;;5116143;28;20035;-73
2023/01/09 04:28:28;;;;;;;9.07;3.40;;;5.00;99.90;;;;;;5116484;28;20028;-74
2023/01/09 04:30:53;;;;;;;12.87;3.67;;;5.00;99.90;;;;;;5114541;28;20401;-74
2023/01/09 04:33:19;;;;;;;11.67;3.87;;;5.00;99.90;;;;;;5115537;28;20024;-73
2023/01/09 04:35:46;;;;;;;5.37;3.47;;;5.10;99.90;;;;;;5116338;28;20034;-74
2023/01/09 04:38:12;;;;;;;13.65;4.05;;;5.10;99.90;;;;;;5093171;28;20039;-73
2023/01/09 04:40:37;;;;;;;11.03;3.40;;;5.20;99.90;;;;;;5117041;28;20306;-73
2023/01/09 04:43:03;;;;;;;6.50;3.47;;;5.30;99.90;;;;;;5110478;28;20418;-73
2023/01/09 04:45:29;;;;;;;11.20;4.40;;;5.30;99.90;;;;;;5112750;28;20401;-73
2023/01/09 04:47:55;;;;;;;7.23;2.30;;;5.30;99.90;;;;;;5097877;28;20043;-73
2023/01/09 04:50:20;;;;;;;10.70;4.37;;;5.30;99.90;;;;;;5102093;28;20027;-75
2023/01/09 04:52:46;;;;;;;7.43;4.03;;;5.40;99.90;;;;;;5066685;28;20121;-73
2023/01/09 04:55:11;;;;;;;7.97;3.80;;;5.40;99.90;;;;;;5113258;28;20028;-74
2023/01/09 04:57:37;;;;;;;16.40;3.90;;;5.50;99.90;;;;;;5101241;28;20020;-73
2023/01/09 05:00:08;;;;;;;10.43;3.43;;;5.40;99.90;;;;;;5107571;28;20050;-73
2023/01/09 05:02:34;;;;;;;13.65;2.80;;;5.50;99.90;;;;;;5113168;28;20199;-73
2023/01/09 05:05:00;;;;;;;8.93;3.22;;;5.50;99.90;;;;;;5107973;28;20020;-74
2023/01/09 05:07:25;;;;;;;6.90;3.43;;;5.40;99.90;;;;;;5106508;28;20295;-73
2023/01/09 05:09:51;;;;;;;7.67;2.67;;;5.50;99.90;;;;;;5108547;28;20378;-74
2023/01/09 05:12:17;;;;;;;5.00;2.47;;;5.50;99.90;;;;;;5106054;28;20030;-73
2023/01/09 05:14:42;;;;;;;7.90;2.30;;;5.50;99.90;;;;;;5092351;28;20107;-73
2023/01/09 05:17:08;;;;;;;8.73;2.90;;;5.60;99.90;;;;;;5091839;28;20027;-79
2023/01/09 05:19:34;;;;;;;10.03;2.70;;;5.60;99.90;;;;;;5109222;28;20030;-73
2023/01/09 05:21:59;;;;;;;9.27;2.50;;;5.60;99.90;;;;;;5095051;28;20148;-73
2023/01/09 05:24:25;;;;;;;7.30;2.60;;;5.70;99.90;;;;;;5107061;28;20053;-80
2023/01/09 05:26:50;;;;;;;11.07;3.43;;;5.70;99.90;;;;;;5090388;28;20341;-74
2023/01/09 05:29:16;;;;;;;6.78;2.70;;;5.70;99.90;;;;;;5096416;28;20036;-74
2023/01/09 05:31:42;;;;;;;5.13;2.73;;;5.70;99.90;;;;;;5114457;28;20323;-73
2023/01/09 05:34:07;;;;;;;9.87;2.57;;;5.70;99.90;;;;;;5115182;28;20023;-80
2023/01/09 05:36:33;;;;;;;10.70;2.53;;;5.70;99.90;;;;;;5111789;28;20413;-73
2023/01/09 05:39:01;;;;;;;52.67;26.17;;;5.70;99.90;;;;;;5107816;28;20024;-73
2023/01/09 05:41:27;;;;;;;18.48;8.50;;;5.70;99.90;;;;;;5092317;28;20039;-80
2023/01/09 05:43:52;;;;;;;14.97;10.33;;;5.70;99.90;;;;;;5108082;28;20023;-74
2023/01/09 05:46:18;;;;;;;49.37;23.20;;;5.70;99.90;;;;;;5106758;28;20408;-73
2023/01/09 05:48:44;;;;;;;34.20;18.33;;;5.70;99.90;;;;;;5109457;28;20037;-73
2023/01/09 05:51:10;;;;;;;25.50;17.07;;;5.70;99.90;;;;;;5108899;28;20030;-81
2023/01/09 05:53:36;;;;;;;20.13;14.57;;;5.70;99.90;;;;;;5093660;28;20020;-81
2023/01/09 05:56:02;;;;;;;9.27;5.70;;;5.80;99.90;;;;;;5111865;28;20527;-74
2023/01/09 05:58:27;;;;;;;15.20;5.97;;;5.80;99.90;;;;;;5107644;28;20027;-74
2023/01/09 06:00:53;;;;;;;15.77;12.30;;;5.80;99.90;;;;;;5111704;28;20023;-73
2023/01/09 06:03:19;;;;;;;5.68;4.68;;;5.90;99.90;;;;;;5111286;28;20027;-74
2023/01/09 06:05:44;;;;;;;17.13;13.35;;;5.90;99.90;;;;;;5112548;28;20435;-74
2023/01/09 06:08:10;;;;;;;21.42;17.35;;;5.90;99.90;;;;;;5112117;28;20034;-75
2023/01/09 06:10:36;;;;;;;9.37;6.10;;;6.00;99.90;;;;;;5095310;28;20107;-74
2023/01/09 06:13:01;;;;;;;11.27;3.72;;;6.00;99.90;;;;;;5089204;28;20039;-74
2023/01/09 06:15:27;;;;;;;7.70;4.47;;;6.00;99.90;;;;;;5108017;28;20318;-73
2023/01/09 06:17:53;;;;;;;11.57;2.50;;;6.00;99.90;;;;;;5103713;28;20020;-73
2023/01/09 06:20:18;;;;;;;15.32;5.95;;;6.00;99.90;;;;;;5093609;28;20042;-73
2023/01/09 06:22:44;;;;;;;9.17;5.00;;;6.10;99.90;;;;;;5097031;28;20027;-73
2023/01/09 06:25:11;;;;;;;21.98;10.93;;;6.10;99.90;;;;;;5112654;28;20035;-79
2023/01/09 06:27:36;;;;;;;22.88;10.25;;;6.10;99.90;;;;;;5115126;28;20059;-79
2023/01/09 06:30:02;;;;;;;14.10;6.87;;;6.10;99.90;;;;;;5112864;28;20078;-73
2023/01/09 06:32:28;;;;;;;7.93;4.87;;;6.10;99.90;;;;;;5096730;28;20385;-73
2023/01/09 06:34:53;;;;;;;15.97;5.00;;;6.10;99.90;;;;;;5094959;28;20037;-73
2023/01/09 06:37:19;;;;;;;15.70;4.23;;;6.10;99.90;;;;;;5114670;28;20031;-73
2023/01/09 06:39:45;;;;;;;8.80;2.63;;;6.10;99.90;;;;;;5113562;28;20035;-72
2023/01/09 06:42:11;;;;;;;11.17;3.17;;;6.20;99.90;;;;;;5096285;28;20027;-74
2023/01/09 06:44:36;;;;;;;6.73;2.07;;;6.10;99.90;;;;;;5095719;28;20035;-74
2023/01/09 06:47:03;;;;;;;8.83;2.60;;;6.20;99.90;;;;;;5114187;28;20031;-73
2023/01/09 06:49:28;;;;;;;12.55;2.35;;;6.20;99.90;;;;;;5090110;28;20044;-73
2023/01/09 06:51:54;;;;;;;43.78;22.15;;;6.20;99.90;;;;;;5110270;28;20317;-74
2023/01/09 06:54:20;;;;;;;34.13;22.05;;;6.20;99.90;;;;;;5113792;28;20036;-79
2023/01/09 06:56:46;;;;;;;19.57;12.43;;;6.20;99.90;;;;;;5113630;28;20030;-73
2023/01/09 06:59:12;;;;;;;16.00;11.57;;;6.20;99.90;;;;;;5112483;28;20038;-75
2023/01/09 07:01:39;;;;;;;14.38;9.15;;;6.20;99.90;;;;;;5112420;28;20401;-79
2023/01/09 07:04:06;;;;;;;11.13;4.47;;;6.30;99.90;;;;;;5095852;28;20027;-78
2023/01/09 07:06:32;;;;;;;5.40;3.22;;;6.30;99.90;;;;;;5111704;28;20057;-77
2023/01/09 07:08:58;;;;;;;30.70;12.93;;;6.20;99.90;;;;;;5109059;28;20486;-77
2023/01/09 07:11:24;;;;;;;11.87;6.87;;;6.30;99.90;;;;;;5095181;28;20115;-73
2023/01/09 07:13:50;;;;;;;21.93;13.90;;;6.30;99.90;;;;;;5111976;28;20038;-74
2023/01/09 07:16:15;;;;;;;19.93;5.67;;;6.30;99.90;;;;;;5095735;28;20064;-73
2023/01/09 07:18:41;;;;;;;55.57;5.27;;;6.30;99.90;;;;;;5110586;28;20036;-74
2023/01/09 07:21:07;;;;;;;11.53;3.47;;;6.40;99.90;;;;;;5109546;28;20031;-79
2023/01/09 07:23:33;;;;;;;9.47;3.80;;;6.30;99.90;;;;;;5109624;28;20096;-73
2023/01/09 07:25:59;;;;;;;13.30;5.30;;;6.30;99.90;;;;;;5109049;28;20107;-74
2023/01/09 07:28:25;;;;;;;9.15;4.72;;;6.30;99.90;;;;;;5112905;28;20028;-74
2023/01/09 07:30:50;;;;;;;7.27;3.77;;;6.30;99.90;;;;;;5069949;28;20140;-74
2023/01/09 07:33:16;;;;;;;33.23;16.53;;;6.40;99.90;;;;;;5117752;28;20039;-74
2023/01/09 07:35:42;;;;;;;12.13;6.20;;;6.40;99.90;;;;;;5108815;28;20024;-73
2023/01/09 07:38:08;;;;;;;8.73;4.67;;;6.40;99.90;;;;;;5117045;28;20030;-81
2023/01/09 07:40:34;;;;;;;10.90;4.30;;;6.40;99.90;;;;;;5117042;28;20409;-74
2023/01/09 07:42:59;;;;;;;10.03;3.87;;;6.40;99.90;;;;;;5116918;28;20116;-80
2023/01/09 07:45:25;;;;;;;11.03;5.13;;;6.40;99.90;;;;;;5099446;28;20098;-74
2023/01/09 07:47:51;;;;;;;17.23;3.67;;;6.40;99.90;;;;;;5099445;28;20096;-74
2023/01/09 07:50:17;;;;;;;15.38;5.43;;;6.40;99.90;;;;;;5095714;28;20428;-79
2023/01/09 07:52:45;;;;;;;10.80;3.85;;;6.40;99.90;;;;;;5118050;28;20016;-75
2023/01/09 07:55:11;;;;;;;10.75;4.38;;;6.50;99.90;;;;;;5099103;28;20040;-75
2023/01/09 07:57:37;;;;;;;14.87;5.57;;;6.50;99.90;;;;;;5111503;28;20073;-74
2023/01/09 08:00:05;;;;;;;7.85;4.28;;;6.50;99.90;;;;;;5115845;28;20054;-74
2023/01/09 08:02:31;;;;;;;18.83;8.20;;;6.40;99.90;;;;;;5113681;28;20017;-74
2023/01/09 08:04:57;;;;;;;19.50;5.53;;;6.40;99.90;;;;;;5117665;28;20110;-79
2023/01/09 08:07:23;;;;;;;29.33;4.90;;;6.40;99.90;;;;;;5117789;28;20389;-74
2023/01/09 08:09:48;;;;;;;36.07;6.33;;;6.40;99.90;;;;;;5116610;28;20024;-75
2023/01/09 08:12:14;;;;;;;22.93;5.50;;;6.50;99.90;;;;;;5099637;28;20035;-75
2023/01/09 08:14:40;;;;;;;10.73;4.63;;;6.50;99.90;;;;;;5117230;28;20173;-75
2023/01/09 08:17:08;;;;;;;34.53;5.37;;;6.60;99.90;;;;;;5117399;28;20100;-79
2023/01/09 08:19:33;;;;;;;6.57;4.05;;;6.50;99.90;;;;;;5076925;28;20042;-78
2023/01/09 08:21:59;;;;;;;13.30;4.33;;;6.60;99.90;;;;;;5117460;28;20465;-79
2023/01/09 08:24:25;;;;;;;34.50;4.00;;;6.60;99.90;;;;;;5099117;28;20031;-74
2023/01/09 08:26:51;;;;;;;25.40;5.00;;;6.60;99.90;;;;;;5115202;28;20030;-74
2023/01/09 08:29:17;;;;;;;14.57;4.53;;;6.70;99.90;;;;;;5116826;28;20059;-75
2023/01/09 08:31:42;;;;;;;14.73;4.00;;;6.70;99.90;;;;;;5116961;28;20031;-75
2023/01/09 08:34:08;;;;;;;6.70;3.70;;;6.70;99.90;;;;;;5118007;28;20016;-80
2023/01/09 08:36:34;;;;;;;12.47;3.80;;;6.70;99.90;;;;;;5096959;28;20299;-75
2023/01/09 08:39:00;;;;;;;12.13;3.97;;;6.80;99.90;;;;;;5093950;28;20066;-74
2023/01/09 08:47:06;;;;;;;10.95;3.30;;;6.90;99.90;;;;;;5110422;28;20468;-80
2023/01/09 08:49:37;;;;;;;13.32;3.22;;;6.90;99.90;;;;;;5115488;28;20449;-74
2023/01/09 08:52:04;;;;;;;7.38;4.75;;;7.00;99.90;;;;;;5113892;28;20046;-75
2023/01/09 08:54:29;;;;;;;11.40;4.38;;;7.00;99.90;;;;;;5108851;28;20031;-74
2023/01/09 08:56:55;;;;;;;16.67;3.80;;;7.10;99.90;;;;;;5109742;28;20019;-80
2023/01/09 08:59:21;;;;;;;9.60;4.00;;;7.10;99.90;;;;;;5112160;28;20028;-74
2023/01/09 09:01:47;;;;;;;12.82;4.75;;;7.20;99.90;;;;;;5106721;28;20032;-73
2023/01/09 09:04:13;;;;;;;8.87;4.53;;;7.20;99.90;;;;;;5112388;28;20061;-74
2023/01/09 09:06:39;;;;;;;8.73;4.47;;;7.20;99.90;;;;;;5087159;28;20330;-74
2023/01/09 09:09:05;;;;;;;6.63;4.35;;;7.30;99.90;;;;;;5108265;28;20287;-81
2023/01/09 09:11:32;;;;;;;13.80;4.45;;;7.30;99.90;;;;;;5095537;28;20030;-76
2023/01/09 09:13:59;;;;;;;18.20;4.97;;;7.30;99.90;;;;;;5096011;28;20034;-74
2023/01/09 09:16:26;;;;;;;13.23;4.50;;;7.30;99.90;;;;;;5095309;28;20402;-74
2023/01/09 09:18:52;;;;;;;9.05;4.18;;;7.40;99.90;;;;;;5110844;28;20737;-74
2023/01/09 09:21:19;;;;;;;11.75;3.72;;;7.40;99.90;;;;;;5104125;28;20103;-75
2023/01/09 09:23:45;;;;;;;11.80;3.90;;;7.40;99.90;;;;;;5110569;28;20067;-74
2023/01/09 09:26:11;;;;;;;7.53;3.40;;;7.40;99.90;;;;;;5094944;28;20066;-73
2023/01/09 09:28:37;;;;;;;13.33;3.13;;;7.40;99.90;;;;;;5085945;28;20032;-81
2023/01/09 09:31:07;;;;;;;11.70;3.13;;;7.50;99.90;;;;;;5106692;28;20030;-72
2023/01/09 09:33:33;;;;;;;4.97;2.35;;;7.40;99.90;;;;;;5113544;28;20050;-73
2023/01/09 09:35:59;;;;;;;3.80;2.10;;;7.40;99.90;;;;;;5097278;28;20023;-80
2023/01/09 09:38:25;;;;;;;2.75;1.88;;;7.40;99.90;;;;;;5110447;28;20138;-72
2023/01/09 09:44:41;;;;;;;5.40;1.97;;;7.40;99.90;;;;;;5106112;28;20032;-75
2023/01/09 09:47:06;;;;;;;2.90;1.15;;;7.30;99.90;;;;;;5106095;28;20093;-73
2023/01/09 09:50:05;;;;;;;6.65;1.77;;;7.40;99.90;;;;;;5109842;28;20075;-73
2023/01/09 09:52:52;;;;;;;5.40;1.08;;;7.40;99.90;;;;;;5083161;28;20036;-74
2023/01/09 09:55:23;;;;;;;3.13;1.60;;;7.40;99.90;;;;;;5106759;28;20089;-73
2023/01/09 09:57:50;;;;;;;6.38;1.42;;;7.40;99.90;;;;;;5111857;28;20047;-74
2023/01/09 10:00:22;;;;;;;4.93;1.15;;;7.40;99.90;;;;;;5109478;28;20406;-74
2023/01/09 10:03:05;;;;;;;9.80;2.33;;;7.50;99.90;;;;;;5111559;28;20102;-75
2023/01/09 10:05:38;;;;;;;2.10;1.10;;;7.50;99.90;;;;;;5107760;28;20105;-74
2023/01/09 10:08:17;;;;;;;3.88;1.67;;;7.60;99.90;;;;;;5101318;28;20319;-74
2023/01/09 10:10:52;;;;;;;2.17;1.20;;;7.60;99.90;;;;;;5103438;28;20097;-74
2023/01/09 10:16:10;;;;;;;4.75;1.50;;;7.60;99.90;;;;;;5108067;28;20062;-82
2023/01/09 10:19:20;;;;;;;6.88;1.52;;;7.60;99.90;;;;;;5093700;28;20024;-81
2023/01/09 10:22:19;;;;;;;7.13;1.58;;;7.70;99.90;;;;;;5070998;28;20035;-74
2023/01/09 10:24:55;;;;;;;6.22;1.75;;;7.70;99.90;;;;;;5101969;28;20050;-74
2023/01/09 10:27:53;;;;;;;3.88;1.02;;;7.80;99.90;;;;;;5109125;28;20111;-77
2023/01/09 10:30:43;;;;;;;6.30;1.48;;;7.90;99.90;;;;;;5041537;28;20134;-81
2023/01/09 10:33:27;;;;;;;13.45;1.70;;;8.00;99.90;;;;;;5103191;28;20314;-81
2023/01/09 10:36:31;;;;;;;16.85;2.20;;;8.00;99.90;;;;;;5095729;28;20080;-74
2023/01/09 10:39:03;;;;;;;5.82;2.03;;;8.10;99.90;;;;;;5108664;28;20357;-82
2023/01/09 10:41:48;;;;;;;8.07;1.85;;;8.10;99.90;;;;;;5104920;28;20028;-73
2023/01/09 10:44:32;;;;;;;13.38;1.70;;;8.20;99.90;;;;;;5108091;28;20053;-74
2023/01/09 10:47:00;;;;;;;9.27;1.42;;;8.30;99.90;;;;;;5105797;28;20024;-73
2023/01/09 10:49:26;;;;;;;12.63;1.85;;;8.30;99.90;;;;;;5113456;28;20333;-74
2023/01/09 10:52:08;;;;;;;8.13;2.00;;;8.30;99.90;;;;;;5084022;28;20110;-73
2023/01/09 10:54:39;;;;;;;11.23;2.67;;;8.40;99.90;;;;;;5110173;28;20133;-73
2023/01/09 10:57:12;;;;;;;9.80;1.38;;;8.40;99.90;;;;;;5112832;28;20019;-82
2023/01/09 10:59:40;;;;;;;13.43;1.58;;;8.40;99.90;;;;;;5113839;28;20047;-73
2023/01/09 11:02:29;;;;;;;10.63;1.20;;;8.50;99.90;;;;;;5107830;28;20019;-82
2023/01/09 11:04:55;;;;;;;8.68;1.45;;;8.50;99.90;;;;;;5105595;28;20376;-74
2023/01/09 11:07:27;;;;;;;6.70;1.63;;;8.50;99.90;;;;;;5110526;28;20031;-73
2023/01/09 11:10:02;;;;;;;11.45;1.25;;;8.50;99.90;;;;;;5105043;28;20104;-74
2023/01/09 11:12:32;;;;;;;15.48;1.52;;;8.50;99.90;;;;;;5109569;28;20027;-73
2023/01/09 11:15:19;;;;;;;11.32;2.47;;;8.50;99.90;;;;;;5110139;28;20429;-74
2023/01/09 11:17:46;;;;;;;4.75;1.17;;;8.60;99.90;;;;;;5106337;28;20027;-74
2023/01/09 11:20:12;;;;;;;;;;;8.60;99.90;;;;;;5099365;28;20035;-85
2023/01/09 11:22:43;;;;;;;12.67;1.53;;;8.60;99.90;;;;;;5093707;28;19916;-74
2023/01/09 11:25:15;;;;;;;9.00;1.20;;;8.60;99.90;;;;;;5118276;28;20434;-88
2023/01/09 11:27:41;;;;;;;14.75;1.58;;;8.60;99.90;;;;;;5111893;28;20035;-74
2023/01/09 11:30:19;;;;;;;10.50;1.43;;;8.70;99.90;;;;;;5105849;28;20329;-84
2023/01/09 11:32:46;;;;;;;11.18;1.92;;;8.70;99.90;;;;;;5093005;28;20020;-73
2023/01/09 11:35:19;;;;;;;11.10;2.40;;;8.80;99.90;;;;;;5108868;28;20023;-75
2023/01/09 11:37:48;;;;;;;12.90;1.27;;;8.90;99.90;;;;;;5118378;28;20068;-74
2023/01/09 11:40:20;;;;;;;11.60;2.22;;;8.90;99.90;;;;;;5111963;28;20440;-75
2023/01/09 11:43:05;;;;;;;9.18;2.78;;;8.90;99.90;;;;;;5099425;28;20421;-74
2023/01/09 11:45:34;;;;;;;17.25;2.20;;;8.80;99.90;;;;;;5113888;28;20070;-74
2023/01/09 11:48:02;;;;;;;9.90;1.92;;;8.80;99.90;;;;;;5105409;28;20066;-84
2023/01/09 11:50:29;;;;;;;10.60;1.70;;;8.80;99.90;;;;;;5111662;28;20072;-84
2023/01/09 11:53:15;;;;;;;16.88;1.98;;;8.70;99.90;;;;;;5114684;28;20030;-74
2023/01/09 11:55:43;;;;;;;8.35;1.60;;;8.70;99.90;;;;;;5099912;28;20495;-74
2023/01/09 11:58:14;;;;;;;15.77;1.88;;;8.80;99.90;;;;;;5116403;28;20032;-82
2023/01/09 12:00:52;;;;;;;8.90;1.98;;;8.80;99.90;;;;;;5115214;28;20034;-74
2023/01/09 12:03:43;;;;;;;11.15;1.73;;;8.70;99.90;;;;;;5113959;28;20028;-74
2023/01/09 12:06:35;;;;;;;10.82;1.70;;;8.60;99.90;;;;;;5114193;28;20031;-83
2023/01/09 12:09:06;;;;;;;15.00;1.98;;;8.60;99.90;;;;;;5094787;28;20027;-74
2023/01/09 12:12:00;;;;;;;13.27;1.92;;;8.60;99.90;;;;;;5116021;28;20028;-73
2023/01/09 12:14:33;;;;;;;14.35;1.98;;;8.60;99.90;;;;;;5111979;28;20020;-74
2023/01/09 12:17:34;;;;;;;9.82;2.10;;;8.50;99.90;;;;;;5117238;28;20463;-74
2023/01/09 12:20:15;;;;;;;13.55;2.38;;;8.40;99.90;;;;;;5113279;28;20110;-82
2023/01/09 12:23:08;;;;;;;13.23;2.58;;;8.40;99.90;;;;;;5109418;28;20043;-73
2023/01/09 12:25:43;;;;;;;6.07;2.03;;;8.30;99.90;;;;;;5112117;28;20028;-72
2023/01/09 12:28:11;;;;;;;13.07;2.67;;;8.40;99.90;;;;;;5106414;28;20024;-88
2023/01/09 12:30:52;;;;;;;8.63;1.83;;;8.50;99.90;;;;;;5098843;28;20309;-82
2023/01/09 12:33:30;;;;;;;10.05;2.33;;;8.50;99.90;;;;;;5104696;28;20100;-80
2023/01/09 12:36:22;;;;;;;12.68;2.10;;;8.50;99.90;;;;;;5111940;28;20360;-72
2023/01/09 12:39:01;;;;;;;4.25;1.65;;;8.50;99.90;;;;;;5108235;28;20035;-72
2023/01/09 12:41:33;;;;;;;15.52;2.42;;;8.50;99.90;;;;;;5107367;28;20119;-73
2023/01/09 12:44:12;;;;;;;11.30;2.25;;;8.60;99.90;;;;;;5110824;28;20032;-72
2023/01/09 12:46:45;;;;;;;10.05;1.42;;;8.50;99.90;;;;;;5109541;28;20068;-86
2023/01/09 12:49:31;;;;;;;6.50;1.83;;;8.40;99.90;;;;;;5084946;28;20071;-86
2023/01/09 12:52:04;;;;;;;12.45;2.08;;;8.40;99.90;;;;;;5111391;28;20047;-72
2023/01/09 12:54:46;;;;;;;13.65;2.10;;;8.30;99.90;;;;;;5109088;28;20065;-72
2023/01/09 12:57:24;;;;;;;13.52;2.80;;;8.30;99.90;;;;;;5098342;28;20063;-72
2023/01/09 12:59:55;;;;;;;20.15;2.78;;;8.30;99.90;;;;;;5116202;28;20328;-72
2023/01/09 13:02:44;;;;;;;9.52;2.13;;;8.50;99.90;;;;;;5096513;28;20311;-84
2023/01/09 13:05:22;;;;;;;11.70;2.30;;;8.50;99.90;;;;;;5092619;28;20024;-86
2023/01/09 13:07:59;;;;;;;12.25;2.33;;;8.50;99.90;;;;;;5113203;28;20505;-73
2023/01/09 13:10:32;;;;;;;12.95;2.10;;;8.50;99.90;;;;;;5095146;28;20421;-72
2023/01/09 13:13:05;;;;;;;9.20;1.75;;;8.60;99.90;;;;;;5113004;28;20413;-84
2023/01/09 13:15:42;;;;;;;18.27;2.97;;;8.50;99.90;;;;;;5113156;28;20303;-73
2023/01/09 13:18:23;;;;;;;7.63;1.73;;;8.60;99.90;;;;;;5111692;28;20024;-87
2023/01/09 13:20:52;;;;;;;14.70;2.17;;;8.60;99.90;;;;;;5111633;28;20024;-82
2023/01/09 13:23:43;;;;;;;15.50;1.50;;;8.50;99.90;;;;;;5112735;28;20398;-72
2023/01/09 13:26:35;;;;;;;9.07;1.45;;;8.60;99.90;;;;;;5096831;28;20378;-85